Time;durP1;ratioP1;P1;durP2;ratioP2;P2;SDS_P1;SDS_P2;PMS_P1;PMS_P2;Temp;Humidity;BMP_temperature;BMP_pressure;BME280_temperature;BME280_humidity;BME280_pressure;Samples;Min_cycle;Max_cycle;Signal;HPM_P1;HPM_P2
2023/06/25 00:00:08;;;;;;;8.88;5.93;;;20.00;99.90;;;;;;4962811;28;20042;-92
2023/06/25 00:02:34;;;;;;;9.88;6.97;;;20.00;99.90;;;;;;4957300;28;20047;-92
2023/06/25 00:04:59;;;;;;;12.20;8.07;;;20.00;99.90;;;;;;4961183;28;20062;-92
2023/06/25 00:07:25;;;;;;;10.10;6.90;;;19.90;99.90;;;;;;4970729;28;20129;-92
2023/06/25 00:09:53;;;;;;;10.63;7.72;;;19.90;99.90;;;;;;4949432;28;20047;-93
2023/06/25 00:12:19;;;;;;;13.30;8.13;;;19.90;99.90;;;;;;4960400;28;20043;-90
2023/06/25 00:14:44;;;;;;;8.63;5.47;;;19.80;99.90;;;;;;4953346;28;20146;-91
2023/06/25 00:17:13;;;;;;;10.48;7.45;;;19.80;99.90;;;;;;4946662;29;20043;-91
2023/06/25 00:19:41;;;;;;;9.52;6.50;;;19.80;99.90;;;;;;4970292;28;20869;-90
2023/06/25 00:22:07;;;;;;;11.18;7.05;;;19.80;99.90;;;;;;4939104;29;20054;-92
2023/06/25 00:24:32;;;;;;;10.95;7.75;;;19.80;99.90;;;;;;4961868;28;20043;-91
2023/06/25 00:26:58;;;;;;;12.00;7.53;;;19.70;99.90;;;;;;4957566;28;20038;-91
2023/06/25 00:29:24;;;;;;;13.13;9.05;;;19.80;99.90;;;;;;4967494;28;20039;-91
2023/06/25 00:31:50;;;;;;;9.90;7.25;;;19.70;99.90;;;;;;4945264;28;20043;-91
2023/06/25 00:34:19;;;;;;;10.98;7.88;;;19.70;99.90;;;;;;4953780;28;20071;-93
2023/06/25 00:36:45;;;;;;;11.75;7.20;;;19.70;99.90;;;;;;4944564;28;20054;-92
2023/06/25 00:39:11;;;;;;;10.30;7.03;;;19.70;99.90;;;;;;4941961;28;20039;-92
2023/06/25 00:41:39;;;;;;;11.52;8.43;;;19.70;99.90;;;;;;4956048;28;20035;-91
2023/06/25 00:44:08;;;;;;;12.93;8.73;;;19.60;99.90;;;;;;4951451;29;20153;-92
2023/06/25 00:46:34;;;;;;;11.23;7.53;;;19.60;99.90;;;;;;4960799;28;20069;-91
2023/06/25 00:49:05;;;;;;;11.73;8.35;;;19.50;99.90;;;;;;4952432;29;20043;-92
2023/06/25 00:51:34;;;;;;;12.43;8.48;;;19.50;99.90;;;;;;4956612;28;20058;-92
2023/06/25 00:54:05;;;;;;;10.27;6.82;;;19.50;99.90;;;;;;4934386;28;20043;-91
2023/06/25 00:56:37;;;;;;;12.35;8.93;;;19.50;99.90;;;;;;4959773;28;20055;-91
2023/06/25 00:59:09;;;;;;;9.80;7.65;;;19.40;99.90;;;;;;4963822;28;20098;-92
2023/06/25 01:01:44;;;;;;;10.82;7.93;;;19.40;99.90;;;;;;4962505;28;20055;-91
2023/06/25 01:04:19;;;;;;;10.55;7.32;;;19.40;99.90;;;;;;4956018;28;20107;-92
2023/06/25 01:06:48;;;;;;;10.38;7.38;;;19.40;99.90;;;;;;4963383;28;20058;-92
2023/06/25 01:09:16;;;;;;;12.65;8.48;;;19.30;99.90;;;;;;4954800;28;20039;-92
2023/06/25 01:11:53;;;;;;;15.25;9.20;;;19.30;99.90;;;;;;4933877;28;20127;-91
2023/06/25 01:14:21;;;;;;;10.80;7.82;;;19.30;99.90;;;;;;4946613;29;20043;-91
2023/06/25 01:16:48;;;;;;;14.40;8.63;;;19.30;99.90;;;;;;4968398;28;20042;-92
2023/06/25 01:19:15;;;;;;;9.23;6.78;;;19.20;99.90;;;;;;4941806;29;20086;-92
2023/06/25 01:21:42;;;;;;;12.38;8.68;;;19.20;99.90;;;;;;4938756;28;20089;-92
2023/06/25 01:24:08;;;;;;;13.77;9.93;;;19.10;99.90;;;;;;4958077;28;20047;-92
2023/06/25 01:26:34;;;;;;;13.13;9.35;;;19.10;99.90;;;;;;4960939;28;20126;-92
2023/06/25 01:28:59;;;;;;;12.35;8.75;;;19.10;99.90;;;;;;4947844;28;20046;-92
2023/06/25 01:31:30;;;;;;;12.38;9.43;;;19.00;99.90;;;;;;4933628;28;20107;-92
2023/06/25 01:33:57;;;;;;;12.23;8.20;;;19.00;99.90;;;;;;4974482;28;20062;-92
2023/06/25 01:36:22;;;;;;;14.60;10.00;;;19.00;99.90;;;;;;4950961;28;20571;-92
2023/06/25 01:38:48;;;;;;;11.02;7.35;;;18.90;99.90;;;;;;4965713;28;20107;-91
2023/06/25 01:41:14;;;;;;;12.95;9.50;;;18.90;99.90;;;;;;4957813;28;20100;-91
2023/06/25 01:43:40;;;;;;;16.90;11.32;;;18.90;99.90;;;;;;4961918;28;20039;-91
2023/06/25 01:46:06;;;;;;;12.23;8.35;;;18.90;99.90;;;;;;4961551;28;20046;-91
2023/06/25 01:48:33;;;;;;;11.32;7.70;;;18.80;99.90;;;;;;4969494;28;20039;-91
2023/06/25 01:50:59;;;;;;;13.90;9.15;;;18.90;99.90;;;;;;4942581;28;20035;-93
2023/06/25 01:53:25;;;;;;;16.45;11.82;;;18.80;99.90;;;;;;4956946;28;20053;-92
2023/06/25 01:55:52;;;;;;;14.57;9.48;;;18.80;99.90;;;;;;4949583;28;20055;-90
2023/06/25 01:58:18;;;;;;;15.23;10.73;;;18.80;99.90;;;;;;4964432;28;20046;-91
2023/06/25 02:00:44;;;;;;;13.98;10.52;;;18.80;99.90;;;;;;4973437;28;20035;-91
2023/06/25 02:03:10;;;;;;;9.18;6.72;;;18.80;99.90;;;;;;4956579;28;20030;-93
2023/06/25 02:05:36;;;;;;;10.98;8.07;;;18.80;99.90;;;;;;4979670;28;20046;-92
2023/06/25 02:08:03;;;;;;;15.70;11.20;;;18.80;99.90;;;;;;4973323;28;20094;-92
2023/06/25 02:10:29;;;;;;;13.10;8.73;;;18.70;99.90;;;;;;4957807;28;20083;-92
2023/06/25 02:12:55;;;;;;;13.23;9.88;;;18.70;99.90;;;;;;4971574;28;20039;-91
2023/06/25 02:15:21;;;;;;;14.27;9.80;;;18.80;99.90;;;;;;4959679;28;20077;-92
2023/06/25 02:17:47;;;;;;;13.15;8.88;;;18.70;99.90;;;;;;4970327;28;20043;-92
2023/06/25 02:20:13;;;;;;;17.60;10.43;;;18.70;99.90;;;;;;4958731;28;21396;-93
2023/06/25 02:22:39;;;;;;;11.15;8.50;;;18.70;99.90;;;;;;4968401;28;20439;-91
2023/06/25 02:25:05;;;;;;;16.60;11.25;;;18.70;99.90;;;;;;4944621;28;20050;-92
2023/06/25 02:27:34;;;;;;;14.43;10.60;;;18.70;99.90;;;;;;4966198;28;20047;-92
2023/06/25 02:30:00;;;;;;;14.52;10.82;;;18.70;99.90;;;;;;4934729;28;20063;-92
2023/06/25 02:32:25;;;;;;;22.23;14.48;;;18.60;99.90;;;;;;4958926;28;20126;-92
2023/06/25 02:34:57;;;;;;;16.38;11.45;;;18.60;99.90;;;;;;4955744;28;20474;-92
2023/06/25 02:37:23;;;;;;;19.77;14.57;;;18.60;99.90;;;;;;4949714;28;20047;-92
2023/06/25 02:39:49;;;;;;;20.20;12.73;;;18.60;99.90;;;;;;4939937;28;20049;-92
2023/06/25 02:42:14;;;;;;;16.48;12.52;;;18.60;99.90;;;;;;4951437;28;20039;-93
2023/06/25 02:44:40;;;;;;;20.40;13.65;;;18.60;99.90;;;;;;4951496;28;20043;-92
2023/06/25 02:47:07;;;;;;;18.95;13.27;;;18.50;99.90;;;;;;4959001;28;20038;-92
2023/06/25 02:49:33;;;;;;;19.05;12.13;;;18.60;99.90;;;;;;4959175;28;20074;-92
2023/06/25 02:51:58;;;;;;;21.15;15.38;;;18.50;99.90;;;;;;4961639;28;20038;-93
2023/06/25 02:54:24;;;;;;;19.95;14.40;;;18.60;99.90;;;;;;4968197;28;20478;-93
2023/06/25 02:56:52;;;;;;;17.98;13.45;;;18.60;99.90;;;;;;4965137;28;20038;-94
2023/06/25 02:59:18;;;;;;;16.08;10.70;;;18.60;99.90;;;;;;4947939;28;20475;-92
2023/06/25 03:01:43;;;;;;;20.45;14.15;;;18.50;99.90;;;;;;4962054;28;20050;-92
2023/06/25 03:04:09;;;;;;;19.15;14.13;;;18.50;99.90;;;;;;4940505;28;20089;-93
2023/06/25 03:06:35;;;;;;;12.95;9.40;;;18.50;99.90;;;;;;4956773;28;20045;-92
2023/06/25 03:09:01;;;;;;;17.08;12.07;;;18.50;99.90;;;;;;4971009;28;20397;-94
2023/06/25 03:11:27;;;;;;;14.23;9.73;;;18.50;99.90;;;;;;4973566;28;20118;-94
2023/06/25 03:13:53;;;;;;;16.05;11.93;;;18.50;99.90;;;;;;4967479;28;20050;-92
2023/06/25 03:16:18;;;;;;;19.25;14.00;;;18.50;99.90;;;;;;4970762;28;20045;-93
2023/06/25 03:18:44;;;;;;;14.23;10.30;;;18.50;99.90;;;;;;4976804;28;20034;-92
2023/06/25 03:21:10;;;;;;;17.02;11.85;;;18.50;99.90;;;;;;4952097;28;20063;-93
2023/06/25 03:23:36;;;;;;;18.02;13.15;;;18.50;99.90;;;;;;4956117;28;20051;-94
2023/06/25 03:26:02;;;;;;;18.95;14.13;;;18.50;99.90;;;;;;4963307;28;20123;-93
2023/06/25 03:28:27;;;;;;;18.23;12.73;;;18.50;99.90;;;;;;4948907;28;20442;-94
2023/06/25 03:30:53;;;;;;;16.60;11.70;;;18.50;99.90;;;;;;4940614;28;20039;-94
2023/06/25 03:33:19;;;;;;;18.60;12.95;;;18.50;99.90;;;;;;4951802;28;20101;-95
2023/06/25 03:35:45;;;;;;;16.63;11.65;;;18.50;99.90;;;;;;4952200;28;20126;-94
2023/06/25 03:38:10;;;;;;;16.10;11.57;;;18.50;99.90;;;;;;4959820;28;20035;-93
2023/06/25 03:40:38;;;;;;;12.45;9.10;;;18.40;99.90;;;;;;4961746;28;20217;-93
2023/06/25 03:43:03;;;;;;;16.10;11.90;;;18.50;99.90;;;;;;4937085;29;20039;-93
2023/06/25 03:45:29;;;;;;;19.02;12.88;;;18.40;99.90;;;;;;4961572;28;20383;-92
2023/06/25 03:47:55;;;;;;;17.83;13.57;;;18.40;99.90;;;;;;4958550;28;20486;-94
2023/06/25 03:50:21;;;;;;;18.83;13.07;;;18.40;99.90;;;;;;4955262;28;20085;-93
2023/06/25 03:52:46;;;;;;;16.02;10.45;;;18.40;99.90;;;;;;4975108;28;20043;-93
2023/06/25 03:55:12;;;;;;;17.17;12.63;;;18.30;99.90;;;;;;4951174;28;20470;-95
2023/06/25 03:57:38;;;;;;;19.23;11.23;;;18.30;99.90;;;;;;4949044;28;20070;-93
2023/06/25 04:00:05;;;;;;;20.95;14.20;;;18.30;99.90;;;;;;4949401;28;20101;-95
2023/06/25 04:02:31;;;;;;;20.15;13.68;;;18.30;99.90;;;;;;4950201;28;20043;-94
2023/06/25 04:04:56;;;;;;;17.88;13.02;;;18.30;99.90;;;;;;4951006;28;20055;-94
2023/06/25 04:07:25;;;;;;;16.55;11.52;;;18.30;99.90;;;;;;4971662;28;20050;-95
2023/06/25 04:09:50;;;;;;;22.13;14.23;;;18.30;99.90;;;;;;4970053;28;20071;-96
2023/06/25 04:12:16;;;;;;;18.65;13.65;;;18.40;99.90;;;;;;4956218;28;20031;-95
2023/06/25 04:14:42;;;;;;;22.45;14.32;;;18.40;99.90;;;;;;4951136;28;20057;-94
2023/06/25 04:17:08;;;;;;;20.63;14.32;;;18.40;99.90;;;;;;4942654;28;20035;-95
2023/06/25 04:19:36;;;;;;;21.27;14.10;;;18.50;99.90;;;;;;4958277;28;20134;-95
2023/06/25 04:22:02;;;;;;;18.00;13.00;;;18.40;99.90;;;;;;4934006;28;20093;-95
2023/06/25 04:24:28;;;;;;;20.13;13.93;;;18.30;99.90;;;;;;4943159;28;20046;-95
2023/06/25 04:26:54;;;;;;;17.33;12.05;;;18.40;99.90;;;;;;4955978;28;20047;-96
2023/06/25 04:29:20;;;;;;;15.80;11.20;;;18.40;99.90;;;;;;4973735;28;20031;-96
2023/06/25 04:31:45;;;;;;;19.92;14.13;;;18.40;99.90;;;;;;4957452;28;20035;-96
2023/06/25 04:34:11;;;;;;;18.63;12.07;;;18.40;99.90;;;;;;4958517;28;20528;-96
2023/06/25 04:36:37;;;;;;;17.48;11.85;;;18.40;99.90;;;;;;4963515;28;20486;-96
2023/06/25 04:39:03;;;;;;;20.00;12.27;;;18.40;99.90;;;;;;4963806;28;20071;-96
2023/06/25 04:41:28;;;;;;;22.05;13.05;;;18.40;99.90;;;;;;4959883;28;20070;-96
2023/06/25 04:43:54;;;;;;;18.58;12.75;;;18.40;99.90;;;;;;4987424;28;20059;-96
2023/06/25 04:46:33;;;;;;;19.40;11.55;;;18.40;99.90;;;;;;5131714;23;20070;31
2023/06/25 04:49:07;;;;;;;19.45;12.68;;;18.50;99.90;;;;;;4956304;28;20035;-95
2023/06/25 05:25:25;;;;;;;14.90;10.15;;;18.70;99.90;;;;;;5985572;23;20037;-96
2023/06/25 05:27:54;;;;;;;14.73;10.93;;;18.70;99.90;;;;;;5159817;23;20055;-90
2023/06/25 05:32:46;;;;;;;17.73;10.88;;;18.70;99.90;;;;;;4989516;23;20074;-96
2023/06/25 05:35:11;;;;;;;12.45;7.93;;;18.70;99.90;;;;;;4963115;29;20051;-94
2023/06/25 05:53:03;;;;;;;17.50;11.07;;;18.90;99.90;;;;;;4969616;28;20062;-96
2023/06/25 05:55:29;;;;;;;16.40;10.10;;;18.90;99.90;;;;;;4965317;28;20105;-96
2023/06/25 05:57:54;;;;;;;17.05;10.23;;;18.90;99.90;;;;;;4932907;28;20047;-95
2023/06/25 06:00:21;;;;;;;13.27;9.43;;;19.00;99.90;;;;;;4965905;28;20047;-96
2023/06/25 06:02:47;;;;;;;14.77;9.43;;;19.00;99.90;;;;;;4948918;29;20074;-96
2023/06/25 06:05:12;;;;;;;13.77;9.20;;;19.00;99.90;;;;;;4949490;29;20236;-96
2023/06/25 06:07:38;;;;;;;16.13;10.43;;;19.10;99.90;;;;;;4975467;28;20469;-96
2023/06/25 06:10:04;;;;;;;15.13;10.05;;;19.10;99.90;;;;;;4949270;29;20129;-96
2023/06/25 06:12:30;;;;;;;14.27;9.48;;;19.10;99.90;;;;;;4950907;28;20059;-94
2023/06/25 06:40:51;;;;;;;18.40;11.32;;;19.60;99.90;;;;;;3318847;26;20506;-90
2023/06/25 06:43:17;;;;;;;17.65;11.07;;;19.70;99.90;;;;;;4980702;28;20098;-90
2023/06/25 06:45:43;;;;;;;20.63;12.05;;;19.80;99.90;;;;;;4961429;28;20039;-89
2023/06/25 06:48:09;;;;;;;18.05;12.55;;;19.90;99.90;;;;;;4967639;28;20071;-91
2023/06/25 06:50:34;;;;;;;17.00;12.63;;;19.90;99.90;;;;;;4978173;28;20035;-92
2023/06/25 06:53:00;;;;;;;21.80;14.43;;;20.00;99.90;;;;;;4955138;28;20413;-92
2023/06/25 06:55:26;;;;;;;18.48;13.20;;;20.00;99.90;;;;;;4969334;28;20051;-90
2023/06/25 06:57:51;;;;;;;20.48;13.27;;;20.10;99.90;;;;;;4965728;28;20048;-91
2023/06/25 07:00:18;;;;;;;19.10;13.77;;;20.20;99.90;;;;;;4977942;28;20031;-90
2023/06/25 07:02:44;;;;;;;16.50;12.52;;;20.30;99.90;;;;;;4968394;28;20035;-90
2023/06/25 07:05:11;;;;;;;18.77;14.82;;;20.40;99.90;;;;;;4976044;28;20121;-90
2023/06/25 07:07:37;;;;;;;17.33;14.25;;;20.50;99.90;;;;;;4974424;28;20041;-90
2023/06/25 07:10:02;;;;;;;18.92;14.73;;;20.60;99.90;;;;;;4965240;28;20038;-92
2023/06/25 07:12:28;;;;;;;17.17;13.93;;;20.80;99.90;;;;;;4976347;28;20051;-92
2023/06/25 07:14:54;;;;;;;20.67;14.43;;;21.00;99.90;;;;;;4975273;28;20161;-92
2023/06/25 07:17:19;;;;;;;18.92;13.82;;;21.30;99.90;;;;;;4988629;28;20038;-93
2023/06/25 07:19:45;;;;;;;18.70;13.38;;;21.60;99.90;;;;;;4974058;28;20031;-92
2023/06/25 07:22:13;;;;;;;17.77;13.10;;;21.90;99.90;;;;;;4979275;28;20046;-92
2023/06/25 07:24:38;;;;;;;18.00;14.05;;;22.30;99.90;;;;;;4963982;28;20050;-92
2023/06/25 07:27:04;;;;;;;18.65;14.40;;;22.60;99.90;;;;;;4979519;28;20050;-92
2023/06/25 07:29:30;;;;;;;15.07;13.15;;;22.90;99.90;;;;;;4960579;28;20039;-92
2023/06/25 07:31:56;;;;;;;14.13;11.43;;;23.20;99.90;;;;;;4970978;28;20045;-92
2023/06/25 07:34:22;;;;;;;15.00;11.85;;;23.50;99.90;;;;;;4983451;28;20048;-92
2023/06/25 07:54:17;;;;;;;14.48;11.25;;;25.00;99.90;;;;;;4956623;28;20058;-92
2023/06/25 07:56:44;;;;;;;14.90;11.65;;;25.30;99.90;;;;;;4935870;29;20103;-92
2023/06/25 07:59:15;;;;;;;18.35;13.50;;;25.40;99.90;;;;;;4935283;29;20078;-92
2023/06/25 08:01:40;;;;;;;14.88;12.68;;;25.50;99.90;;;;;;4957209;29;20039;-89
2023/06/25 08:04:07;;;;;;;12.10;10.80;;;25.60;99.90;;;;;;4938429;29;20698;-92
2023/06/25 08:06:33;;;;;;;15.43;11.15;;;25.70;99.90;;;;;;4938556;29;20078;-90
2023/06/25 08:08:59;;;;;;;16.63;12.15;;;25.90;99.90;;;;;;4958048;28;20035;-96
2023/06/25 08:11:24;;;;;;;16.40;13.13;;;25.90;99.90;;;;;;4966810;28;20102;-96
2023/06/25 08:53:10;;;;;;;12.90;8.27;;;26.00;99.90;;;;;;999467;22;21564;-95
2023/06/25 08:55:37;;;;;;;10.32;8.80;;;26.20;99.90;;;;;;4904123;29;20168;-96
2023/06/25 08:58:03;;;;;;;11.30;8.18;;;26.10;99.90;;;;;;4921233;29;20078;-95
2023/06/25 09:00:28;;;;;;;9.43;7.32;;;26.10;99.90;;;;;;4937808;29;20043;-93
2023/06/25 09:02:55;;;;;;;9.20;7.43;;;26.20;99.90;;;;;;4916302;29;20422;-95
2023/06/25 09:05:26;;;;;;;7.97;6.75;;;26.20;99.90;;;;;;4916752;29;20056;-92
2023/06/25 09:07:53;;;;;;;10.60;6.97;;;26.30;99.60;;;;;;4937514;29;20044;-86
2023/06/25 09:10:19;;;;;;;8.82;6.63;;;26.50;98.30;;;;;;4920617;29;20475;-94
2023/06/25 09:12:50;;;;;;;11.18;6.93;;;26.50;99.00;;;;;;4915566;29;20043;-93
2023/06/25 09:15:23;;;;;;;10.00;6.97;;;26.60;99.30;;;;;;4915070;29;20063;-93
2023/06/25 09:17:54;;;;;;;8.47;6.70;;;26.70;99.00;;;;;;4922506;29;20118;-92
2023/06/25 09:20:21;;;;;;;9.35;7.05;;;26.70;98.80;;;;;;4918417;29;20118;-93
2023/06/25 09:22:55;;;;;;;10.40;7.40;;;26.80;98.60;;;;;;4932973;29;20044;-94
2023/06/25 09:25:28;;;;;;;10.88;7.55;;;26.90;99.10;;;;;;4920741;29;20048;-96
2023/06/25 09:27:54;;;;;;;8.68;7.10;;;27.00;99.10;;;;;;4919894;29;20051;-96
2023/06/25 09:30:22;;;;;;;9.88;6.38;;;27.00;98.90;;;;;;4908033;29;20126;-96
2023/06/25 09:32:55;;;;;;;7.97;6.15;;;27.00;98.80;;;;;;4922422;29;20039;-96
2023/06/25 09:35:21;;;;;;;10.35;6.32;;;27.10;98.10;;;;;;4918205;29;20048;-96
2023/06/25 09:37:49;;;;;;;10.00;7.68;;;27.10;98.50;;;;;;4922654;29;20054;-96
2023/06/25 09:40:14;;;;;;;8.32;6.20;;;27.20;97.90;;;;;;4921261;29;20048;-87
2023/06/25 09:42:43;;;;;;;7.57;5.93;;;27.20;97.80;;;;;;4928405;29;20043;-93
2023/06/25 09:45:12;;;;;;;9.45;6.25;;;27.20;97.70;;;;;;4902719;29;20040;-93
2023/06/25 09:47:42;;;;;;;9.63;6.72;;;27.30;97.70;;;;;;4921782;29;20036;-94
2023/06/25 09:50:16;;;;;;;11.38;6.82;;;27.40;97.70;;;;;;4900264;29;20063;-92
2023/06/25 09:52:53;;;;;;;7.85;6.32;;;27.50;97.70;;;;;;4922990;29;20117;-96
2023/06/25 09:55:23;;;;;;;8.75;5.93;;;27.60;98.10;;;;;;4934133;29;20055;-96
2023/06/25 09:57:50;;;;;;;6.95;4.95;;;27.70;97.10;;;;;;4928625;29;20055;-95
2023/06/25 10:00:18;;;;;;;8.48;5.85;;;27.80;97.00;;;;;;4922907;29;20039;-95
2023/06/25 10:02:44;;;;;;;8.10;5.43;;;27.80;96.80;;;;;;4914309;29;20035;-94
2023/06/25 10:05:11;;;;;;;7.72;5.75;;;27.90;96.80;;;;;;4931208;29;20043;-94
2023/06/25 10:23:36;;;;;;;7.38;5.25;;;28.30;95.40;;;;;;4986586;28;20063;-92
2023/06/25 10:28:41;;;;;;;7.97;5.10;;;28.40;95.60;;;;;;4949816;28;20059;-96
2023/06/25 10:31:14;;;;;;;6.55;5.43;;;28.40;95.70;;;;;;5165376;23;20056;-96
2023/06/25 10:33:40;;;;;;;7.45;5.13;;;28.50;95.60;;;;;;4932941;29;20052;-95
2023/06/25 10:36:10;;;;;;;7.30;4.82;;;28.50;95.20;;;;;;4934748;29;20103;-96
2023/06/25 10:38:36;;;;;;;7.05;5.32;;;28.60;95.00;;;;;;4951567;28;20149;-96
2023/06/25 10:43:40;;;;;;;9.10;5.00;;;28.70;95.50;;;;;;5335373;23;20056;-96
2023/06/25 10:51:19;;;;;;;6.00;4.60;;;28.80;95.50;;;;;;5139653;22;19948;-96
2023/06/25 10:53:50;;;;;;;6.90;4.53;;;29.00;94.30;;;;;;5012533;23;20127;-96
2023/06/25 10:56:17;;;;;;;6.43;4.22;;;29.10;94.00;;;;;;5218220;23;20061;-95
2023/06/25 10:58:44;;;;;;;6.15;3.22;;;29.10;94.70;;;;;;4924044;29;20051;-96
2023/06/25 11:01:15;;;;;;;4.97;2.85;;;29.20;93.50;;;;;;4919303;29;20099;-96
2023/06/25 11:03:40;;;;;;;5.88;3.05;;;29.40;92.10;;;;;;4924759;29;20458;-95
2023/06/25 11:06:06;;;;;;;6.53;3.47;;;29.40;92.60;;;;;;4933179;29;20039;-94
2023/06/25 11:08:32;;;;;;;5.07;3.60;;;29.40;92.40;;;;;;4940244;29;20051;-96
2023/06/25 11:11:00;;;;;;;6.82;4.70;;;29.50;92.80;;;;;;4933903;29;20050;-93
2023/06/25 11:13:25;;;;;;;6.40;4.13;;;29.50;92.90;;;;;;4917994;29;20067;-94
2023/06/25 11:15:51;;;;;;;6.05;4.03;;;29.60;93.30;;;;;;4919393;29;20051;-94
2023/06/25 11:18:21;;;;;;;5.32;4.07;;;29.60;92.90;;;;;;4935804;29;20047;-96
2023/06/25 11:20:50;;;;;;;5.73;3.80;;;29.70;93.20;;;;;;4943210;29;20517;-96
2023/06/25 11:23:16;;;;;;;6.85;3.50;;;29.80;93.20;;;;;;4947856;28;20042;-96
2023/06/25 11:25:43;;;;;;;5.53;3.40;;;29.80;92.80;;;;;;4940538;29;20045;-95
2023/06/25 11:28:11;;;;;;;5.68;3.60;;;29.90;92.30;;;;;;4965570;28;20027;-95
2023/06/25 11:30:37;;;;;;;5.90;3.38;;;29.90;92.00;;;;;;4933358;29;20075;-96
2023/06/25 11:33:21;;;;;;;5.10;3.08;;;29.90;92.10;;;;;;4941215;29;20047;-96
2023/06/25 11:35:50;;;;;;;6.07;3.22;;;30.00;90.80;;;;;;4947925;28;20047;-94
2023/06/25 11:38:26;;;;;;;4.93;2.83;;;30.10;91.20;;;;;;4941743;29;20046;-94
2023/06/25 11:40:57;;;;;;;5.35;3.00;;;30.20;90.60;;;;;;4972077;28;20075;-94
2023/06/25 11:43:27;;;;;;;5.63;3.22;;;30.30;90.90;;;;;;4974420;28;20031;-96
2023/06/25 11:45:58;;;;;;;5.13;2.65;;;30.20;90.20;;;;;;4969487;28;20047;-96
2023/06/25 11:48:24;;;;;;;4.72;2.70;;;30.30;90.20;;;;;;4952089;29;20051;-96
2023/06/25 11:50:53;;;;;;;5.63;2.83;;;30.40;89.50;;;;;;4943190;29;20450;-93
2023/06/25 11:53:19;;;;;;;5.28;3.17;;;30.30;90.00;;;;;;4933569;28;20083;-96
2023/06/25 11:55:46;;;;;;;6.68;3.22;;;30.40;89.90;;;;;;4931930;28;20074;-96
2023/06/25 11:58:11;;;;;;;5.78;3.05;;;30.50;89.60;;;;;;4959996;28;20145;-95
2023/06/25 12:00:37;;;;;;;5.32;2.50;;;30.50;90.00;;;;;;4945214;29;20392;-96
2023/06/25 12:03:03;;;;;;;5.47;3.03;;;30.60;89.00;;;;;;4945977;28;20478;-96
2023/06/25 12:05:29;;;;;;;4.68;2.80;;;30.80;89.40;;;;;;4942929;29;20039;-89
2023/06/25 12:07:55;;;;;;;5.43;2.88;;;30.80;89.00;;;;;;4945882;29;20058;-93
2023/06/25 12:10:20;;;;;;;6.25;3.20;;;30.90;89.50;;;;;;4930226;28;20034;-93
2023/06/25 12:12:47;;;;;;;5.97;2.92;;;30.90;89.10;;;;;;4960291;29;20046;-94
2023/06/25 12:15:13;;;;;;;4.72;2.85;;;31.00;88.80;;;;;;4935018;29;20042;-92
2023/06/25 12:17:39;;;;;;;6.05;3.40;;;31.00;88.80;;;;;;4937948;29;20064;-92
2023/06/25 12:20:08;;;;;;;5.35;2.97;;;31.00;88.60;;;;;;4956586;28;20431;-93
2023/06/25 12:22:34;;;;;;;5.07;3.30;;;31.10;88.00;;;;;;4943025;29;20039;-92
2023/06/25 12:25:00;;;;;;;5.20;3.30;;;31.10;88.20;;;;;;4943625;29;20051;-93
2023/06/25 12:27:25;;;;;;;5.57;3.20;;;31.10;88.30;;;;;;4944127;29;20095;-96
2023/06/25 12:29:51;;;;;;;4.82;3.22;;;31.20;86.50;;;;;;4924372;28;20039;-92
2023/06/25 12:32:17;;;;;;;5.13;3.25;;;31.30;86.90;;;;;;4935260;28;20034;-93
2023/06/25 12:34:44;;;;;;;5.97;4.15;;;31.30;87.60;;;;;;4962969;29;20122;-96
2023/06/25 12:37:10;;;;;;;6.22;3.42;;;31.40;84.20;;;;;;4937465;29;20051;-96
2023/06/25 12:39:36;;;;;;;6.45;4.00;;;31.40;86.90;;;;;;4948543;28;20042;-91
2023/06/25 12:42:02;;;;;;;5.45;3.15;;;31.40;87.70;;;;;;4967229;28;20446;-91
2023/06/25 12:44:28;;;;;;;5.15;3.45;;;31.40;85.70;;;;;;4941049;29;20043;-91
2023/06/25 12:46:53;;;;;;;5.03;3.35;;;31.50;83.80;;;;;;4961968;28;20046;-92
2023/06/25 12:49:19;;;;;;;6.03;3.20;;;31.60;85.90;;;;;;4942437;29;20518;-91
2023/06/25 12:51:45;;;;;;;6.38;3.53;;;31.60;84.30;;;;;;4930343;29;20051;-92
2023/06/25 12:54:11;;;;;;;5.07;3.15;;;31.70;84.00;;;;;;4939446;29;20146;-92
2023/06/25 12:56:36;;;;;;;5.10;3.45;;;31.70;84.10;;;;;;4925185;29;20138;-92
2023/06/25 12:59:02;;;;;;;6.63;3.85;;;31.70;84.20;;;;;;4940994;29;20099;-92
2023/06/25 13:01:28;;;;;;;6.13;4.00;;;31.80;85.70;;;;;;4940319;29;20043;-91
2023/06/25 13:03:54;;;;;;;6.63;4.15;;;31.80;84.00;;;;;;4940077;28;20047;-92
2023/06/25 13:06:20;;;;;;;7.55;3.55;;;31.80;81.80;;;;;;4943840;29;20059;-91
2023/06/25 13:08:46;;;;;;;5.90;3.80;;;31.80;81.90;;;;;;4957668;28;20039;-92
2023/06/25 13:11:12;;;;;;;5.50;3.67;;;31.80;83.40;;;;;;4963904;28;20045;-92
2023/06/25 13:13:37;;;;;;;5.82;4.00;;;31.80;83.80;;;;;;4940716;29;20097;-91
2023/06/25 13:16:03;;;;;;;5.38;3.67;;;32.00;82.50;;;;;;4940661;28;20050;-91
2023/06/25 13:18:29;;;;;;;6.45;3.95;;;31.90;82.80;;;;;;4946004;29;20039;-91
2023/06/25 13:20:54;;;;;;;6.05;3.60;;;32.00;85.00;;;;;;4955988;29;20055;-92
2023/06/25 13:23:20;;;;;;;6.38;3.72;;;32.00;82.90;;;;;;4943704;29;20039;-91
2023/06/25 13:25:46;;;;;;;7.25;4.05;;;32.00;83.60;;;;;;4944189;28;20039;-91
2023/06/25 13:28:12;;;;;;;5.45;3.67;;;32.00;83.80;;;;;;4960470;28;20075;-92
2023/06/25 13:30:37;;;;;;;6.20;3.78;;;32.10;84.00;;;;;;4945087;29;20479;-91
2023/06/25 13:33:04;;;;;;;7.43;3.85;;;32.10;84.80;;;;;;4974475;28;20069;-92
2023/06/25 13:35:30;;;;;;;6.82;3.80;;;32.10;84.80;;;;;;4965310;28;20046;-92
2023/06/25 13:37:56;;;;;;;6.35;3.80;;;32.20;85.30;;;;;;4942422;28;20043;-92
2023/06/25 13:40:21;;;;;;;7.82;3.90;;;32.20;84.80;;;;;;4948549;28;20046;-92
2023/06/25 13:42:47;;;;;;;7.03;4.03;;;32.30;82.80;;;;;;4943221;29;20281;-92
2023/06/25 13:45:15;;;;;;;6.32;3.75;;;32.20;84.30;;;;;;4967511;28;20114;-92
2023/06/25 13:47:40;;;;;;;6.65;4.18;;;32.30;84.70;;;;;;4942623;28;20034;-92
2023/06/25 13:50:08;;;;;;;6.30;3.60;;;32.30;84.90;;;;;;4964575;28;20046;-92
2023/06/25 13:52:33;;;;;;;6.13;3.58;;;32.30;84.50;;;;;;4952117;28;20045;-90
2023/06/25 13:54:59;;;;;;;6.30;3.85;;;32.50;85.10;;;;;;4961369;28;20079;-91
2023/06/25 13:57:25;;;;;;;7.30;3.83;;;32.50;83.90;;;;;;4959657;29;20075;-90
2023/06/25 13:59:50;;;;;;;5.53;3.58;;;32.50;83.00;;;;;;4963112;28;20070;-91
2023/06/25 14:02:17;;;;;;;7.30;3.83;;;32.50;83.90;;;;;;4943464;29;20051;-91
2023/06/25 14:04:42;;;;;;;6.30;3.90;;;32.50;84.70;;;;;;4960923;29;20099;-91
2023/06/25 14:07:08;;;;;;;7.22;4.10;;;32.50;84.70;;;;;;4962958;28;20081;-90
2023/06/25 14:09:34;;;;;;;6.80;4.63;;;32.50;83.60;;;;;;4945693;28;20047;-90
2023/06/25 14:11:59;;;;;;;6.57;4.47;;;32.50;84.40;;;;;;4962291;28;20043;-90
2023/06/25 14:14:25;;;;;;;5.88;3.95;;;32.60;84.60;;;;;;4963791;28;20049;-92
2023/06/25 14:16:51;;;;;;;5.82;4.30;;;32.50;85.50;;;;;;4953717;29;20051;-92
2023/06/25 14:19:16;;;;;;;7.43;4.30;;;32.60;84.30;;;;;;4940777;29;20066;-92
2023/06/25 14:21:44;;;;;;;6.55;4.20;;;32.60;83.00;;;;;;4933189;29;20057;-92
2023/06/25 14:24:10;;;;;;;6.35;4.13;;;32.60;84.90;;;;;;4945157;28;20082;-91
2023/06/25 14:26:35;;;;;;;6.00;4.40;;;32.60;84.60;;;;;;4971048;28;20039;-91
2023/06/25 14:29:01;;;;;;;6.15;4.30;;;32.70;83.20;;;;;;4942566;29;20470;-92
2023/06/25 14:31:27;;;;;;;5.25;3.95;;;32.70;82.10;;;;;;4942003;28;20444;-93
2023/06/25 14:33:53;;;;;;;5.22;3.92;;;32.70;83.40;;;;;;4963395;28;20394;-92
2023/06/25 14:36:18;;;;;;;5.50;3.92;;;32.70;83.40;;;;;;4957933;28;20098;-91
2023/06/25 14:38:44;;;;;;;6.88;3.92;;;32.80;85.00;;;;;;4961952;28;20035;-91
2023/06/25 14:41:10;;;;;;;9.02;4.30;;;32.80;84.80;;;;;;4942755;29;20039;-91
2023/06/25 14:43:35;;;;;;;6.57;4.28;;;32.80;84.40;;;;;;4965452;28;20094;-92
2023/06/25 14:46:01;;;;;;;6.90;4.35;;;32.70;83.50;;;;;;4969801;28;20043;-92
2023/06/25 14:48:27;;;;;;;6.50;4.53;;;32.70;85.10;;;;;;4935012;28;20045;-92
2023/06/25 14:50:53;;;;;;;7.95;4.63;;;32.70;84.10;;;;;;4938913;29;20070;-92
2023/06/25 14:53:18;;;;;;;5.25;3.83;;;32.80;85.40;;;;;;4955945;28;20039;-91
2023/06/25 14:55:44;;;;;;;5.82;4.47;;;32.80;84.40;;;;;;4941803;29;20066;-96
2023/06/25 14:58:10;;;;;;;8.18;4.43;;;32.80;84.10;;;;;;4926082;29;20094;-92
2023/06/25 15:00:36;;;;;;;6.05;4.10;;;32.70;83.30;;;;;;4940060;29;20043;-93
2023/06/25 15:03:01;;;;;;;6.65;4.07;;;32.70;84.60;;;;;;4936914;29;20047;-92
2023/06/25 15:05:27;;;;;;;7.28;4.35;;;32.70;83.90;;;;;;4942370;28;20039;-91
2023/06/25 15:07:53;;;;;;;6.03;4.40;;;32.60;82.40;;;;;;4942008;28;20035;-93
2023/06/25 15:10:18;;;;;;;7.32;4.57;;;32.60;83.30;;;;;;4941558;29;20043;-93
2023/06/25 15:12:44;;;;;;;6.50;3.80;;;32.60;83.90;;;;;;4962604;28;20059;-92
2023/06/25 15:15:10;;;;;;;7.68;4.43;;;32.50;84.00;;;;;;4945834;28;20050;-94